EST,Max TemperatureF,Mean TemperatureF,Min TemperatureF,Max Dew PointF,MeanDew PointF,Min DewpointF,Max Humidity, Mean Humidity, Min Humidity, Max Sea Level PressureIn, Mean Sea Level PressureIn, Min Sea Level PressureIn, Max VisibilityMiles, Mean VisibilityMiles, Min VisibilityMiles, Max Wind SpeedMPH, Mean Wind SpeedMPH, Max Gust SpeedMPH,PrecipitationIn, CloudCover, Events, WindDirDegrees
2012-12-1,46,42,37,43,38,31,89,83,70,30.53,30.47,30.41,10,10,7,7,5,,0.00,8,Rain,17
2012-12-2,54,48,42,48,45,42,100,93,77,30.41,30.31,30.13,10,5,0,12,4,20,0.04,6,Fog-Rain,276
2012-12-3,60,48,37,49,44,34,97,83,62,30.29,30.19,30.11,10,7,2,13,6,,0.00,2,,278
2012-12-4,59,48,36,56,49,34,100,92,87,30.30,30.21,30.02,10,6,2,13,4,20,0.09,5,Rain,183
2012-12-5,55,47,37,51,36,20,93,62,43,30.20,30.03,29.93,10,10,9,17,10,28,0.01,3,Rain,293
2012-12-6,39,32,23,20,18,16,81,59,43,30.36,30.31,30.21,10,10,10,16,9,32,0.00,0,,339
2012-12-7,48,36,23,45,36,19,93,83,63,30.29,30.16,30.04,10,10,3,9,1,,0.06,7,Rain,205
2012-12-8,52,49,46,52,48,45,100,95,88,30.04,29.95,29.88,10,4,0,9,2,,0.55,8,Fog-Rain,285
2012-12-9,51,46,42,49,44,38,100,90,73,30.25,30.15,30.02,10,6,1,10,4,16,0.25,7,Rain,351
2012-12-10,59,56,52,57,55,51,100,96,93,29.98,29.73,29.57,9,2,0,15,9,23,1.23,8,Fog-Rain,212
2012-12-11,54,46,36,54,39,28,100,78,50,30.19,29.86,29.58,10,8,0,14,8,25,0.10,7,Fog-Rain,330
2012-12-12,43,36,30,34,26,24,85,71,47,30.44,30.36,30.20,10,10,10,7,1,,0.00,0,,334
2012-12-13,46,36,27,31,25,22,85,70,42,30.46,30.41,30.33,10,10,7,5,1,,0.00,0,,4
2012-12-14,48,37,26,30,26,23,88,69,43,30.32,30.23,30.14,10,10,8,13,3,,0.00,0,,248
2012-12-15,48,38,28,32,27,24,89,70,46,30.32,30.27,30.24,10,10,7,6,1,,0.00,1,,6
2012-12-16,46,44,41,44,40,33,93,85,70,30.24,30.08,29.91,10,6,2,10,5,23,0.31,8,Rain,97
2012-12-17,51,48,44,50,45,42,100,93,90,29.91,29.83,29.66,10,4,2,8,5,,0.51,8,Rain,36
2012-12-18,55,50,45,54,47,35,100,85,66,29.61,29.51,29.46,10,7,0,18,7,28,2.00,7,Fog-Rain,261
2012-12-19,50,44,39,35,28,25,71,53,41,30.09,29.80,29.58,10,10,10,21,13,31,0.00,1,,315
2012-12-20,46,38,30,40,31,24,79,66,53,30.21,30.11,29.91,10,10,10,12,6,23,0.00,3,Rain,82
2012-12-21,57,48,39,55,44,27,94,80,57,29.83,29.30,29.15,10,7,2,29,16,47,0.51,7,Rain,182
2012-12-22,39,38,36,31,23,17,79,56,43,29.80,29.55,29.33,10,10,5,30,16,43,0.00,6,Snow,287
2012-12-23,44,36,28,26,21,18,66,53,43,29.95,29.90,29.82,10,10,10,15,8,22,0.00,1,,257
2012-12-24,39,32,25,33,23,18,92,67,47,30.10,30.03,29.95,10,9,2,8,1,,0.06,3,Rain-Snow,330
2012-12-25,41,37,32,38,32,23,96,83,67,30.25,30.04,29.91,10,8,4,15,5,24,0.16,5,Rain,348
2012-12-26,45,36,28,42,30,21,93,79,64,30.29,30.04,29.52,10,9,5,14,6,33,0.69,6,Rain-Snow,50
2012-12-27,48,40,32,45,35,21,93,81,60,29.77,29.44,29.23,10,8,2,24,15,40,0.42,7,Rain,339
2012-12-28,39,32,25,24,22,19,85,66,51,30.08,29.99,29.79,10,10,10,18,11,28,0.00,1,,310
2012-12-29,37,31,25,36,30,22,93,87,76,30.04,29.70,29.44,10,8,2,13,4,22,0.62,7,Rain-Snow,353
2012-12-30,35,32,28,30,20,13,89,64,44,30.13,29.83,29.51,10,10,8,26,15,39,0.00,2,Snow,311
2012-12-31,39,33,27,24,20,13,64,57,49,30.17,30.06,29.88,10,10,10,15,9,24,0.00,2,,251